Time;durP1;ratioP1;P1;durP2;ratioP2;P2;SDS_P1;SDS_P2;PMS_P1;PMS_P2;Temp;Humidity;BMP_temperature;BMP_pressure;BME280_temperature;BME280_humidity;BME280_pressure;Samples;Min_cycle;Max_cycle;Signal;HPM_P1;HPM_P2
2023/09/04 00:02:03;;;;;;;6.72;4.47;;;;;;;16.97;68.55;102638.56;4989263;28;20034;-66
2023/09/04 00:04:28;;;;;;;5.43;4.75;;;;;;;17.01;68.20;102644.63;4993432;28;20088;-65
2023/09/04 00:06:53;;;;;;;9.30;5.05;;;;;;;17.01;69.50;102647.31;4992999;28;20025;-66
2023/09/04 00:09:19;;;;;;;5.50;4.93;;;;;;;17.00;69.35;102643.78;4994357;28;20029;-66
2023/09/04 00:11:44;;;;;;;9.05;5.28;;;;;;;16.97;69.84;102637.66;4983494;28;20031;-66
2023/09/04 00:14:09;;;;;;;7.32;5.45;;;;;;;16.93;70.24;102633.41;4991498;28;20034;-66
2023/09/04 00:16:35;;;;;;;6.55;5.55;;;;;;;16.96;70.12;102630.59;4989296;28;20030;-66
2023/09/04 00:19:00;;;;;;;6.30;5.65;;;;;;;17.00;69.36;102629.53;4992360;28;20057;-66
2023/09/04 00:21:25;;;;;;;6.97;5.65;;;;;;;17.01;69.71;102632.16;4991866;28;20033;-66
2023/09/04 00:23:51;;;;;;;6.72;5.82;;;;;;;17.03;70.06;102611.59;4991752;28;20030;-66
2023/09/04 00:26:16;;;;;;;6.90;6.20;;;;;;;17.02;70.20;102622.31;4988907;28;20061;-66
2023/09/04 00:28:41;;;;;;;8.00;6.05;;;;;;;16.96;68.60;102627.91;4992754;28;20034;-66
2023/09/04 00:31:06;;;;;;;6.00;5.13;;;;;;;16.85;69.33;102622.13;4990134;28;20358;-65
2023/09/04 00:33:32;;;;;;;8.93;5.05;;;;;;;16.85;69.13;102630.13;4983215;28;20034;-66
2023/09/04 00:36:02;;;;;;;7.55;5.63;;;;;;;16.71;69.16;102631.50;4987311;28;20028;-66
2023/09/04 00:38:27;;;;;;;5.57;4.75;;;;;;;16.62;69.74;102629.16;4988048;28;20034;-66
2023/09/04 00:40:52;;;;;;;8.77;5.05;;;;;;;16.63;69.77;102628.22;4988109;28;20073;-65
2023/09/04 00:43:18;;;;;;;6.68;5.97;;;;;;;16.63;70.04;102627.34;4993216;28;20037;-66
2023/09/04 00:45:44;;;;;;;6.03;5.43;;;;;;;16.52;70.54;102636.66;4987182;28;20252;-66
2023/09/04 00:48:10;;;;;;;6.10;5.32;;;;;;;16.48;69.31;102635.00;4984946;28;20265;-66
2023/09/04 00:50:36;;;;;;;6.85;5.43;;;;;;;16.45;69.58;102627.09;4988138;28;20054;-66
2023/09/04 00:53:06;;;;;;;7.05;5.55;;;;;;;16.38;69.25;102628.25;4986314;28;20041;-66
2023/09/04 00:55:32;;;;;;;5.13;4.40;;;;;;;16.35;68.12;102630.16;4987792;28;20030;-65
2023/09/04 00:57:59;;;;;;;5.28;3.90;;;;;;;16.23;69.66;102631.50;4987561;28;20041;-65
2023/09/04 01:00:27;;;;;;;6.70;3.85;;;;;;;16.16;69.33;102624.59;4986087;28;20474;-66
2023/09/04 01:02:53;;;;;;;4.00;3.60;;;;;;;16.11;69.44;102632.78;4990201;28;21359;-67
2023/09/04 01:05:19;;;;;;;4.95;4.10;;;;;;;16.07;69.66;102624.00;4986512;28;20148;-66
2023/09/04 01:07:44;;;;;;;6.35;5.50;;;;;;;16.04;71.27;102631.22;4997134;28;20077;-66
2023/09/04 01:10:13;;;;;;;6.82;5.25;;;;;;;15.99;70.91;102630.50;4988413;28;20065;-66
2023/09/04 01:12:51;;;;;;;4.00;3.55;;;;;;;16.01;70.18;102626.88;4993978;28;20155;-66
2023/09/04 01:15:17;;;;;;;5.47;3.60;;;;;;;15.94;70.23;102636.00;4992812;28;20114;-66
2023/09/04 01:17:44;;;;;;;4.97;3.00;;;;;;;15.87;69.85;102622.94;4968435;28;20026;-66
2023/09/04 01:20:22;;;;;;;3.83;2.80;;;;;;;15.82;69.79;102620.44;4992738;28;20034;-66
2023/09/04 01:22:48;;;;;;;4.30;3.75;;;;;;;15.80;69.83;102623.13;4987912;28;20022;-66
2023/09/04 01:25:15;;;;;;;4.35;3.95;;;;;;;15.75;69.14;102625.09;4990804;28;20126;-66
2023/09/04 01:27:48;;;;;;;4.45;4.05;;;;;;;15.67;69.93;102624.50;4992411;28;20065;-66
2023/09/04 01:30:28;;;;;;;6.13;4.70;;;;;;;15.63;69.99;102620.16;4990952;28;20041;-66
2023/09/04 01:33:02;;;;;;;6.68;4.53;;;;;;;15.68;69.96;102623.56;4993585;28;20519;-66
2023/09/04 01:35:30;;;;;;;5.07;4.38;;;;;;;15.58;70.25;102624.75;4991756;28;20044;-66
2023/09/04 01:37:56;;;;;;;5.15;4.40;;;;;;;15.42;71.11;102616.38;4989781;28;20109;-66
2023/09/04 01:40:21;;;;;;;3.58;3.28;;;;;;;15.45;70.93;102618.94;4994318;28;20038;-66
2023/09/04 01:42:47;;;;;;;5.25;4.10;;;;;;;15.42;70.85;102615.50;4994940;28;20108;-66
2023/09/04 01:45:12;;;;;;;4.53;3.90;;;;;;;15.38;69.59;102611.19;4988696;28;20038;-66
2023/09/04 01:47:37;;;;;;;5.68;4.55;;;;;;;15.38;69.95;102608.50;4990515;28;20029;-66
2023/09/04 01:50:03;;;;;;;5.38;4.88;;;;;;;15.34;70.86;102599.78;4995508;28;20049;-66
2023/09/04 01:52:28;;;;;;;9.95;5.65;;;;;;;15.38;70.38;102598.72;4971571;28;20018;-66
2023/09/04 01:54:53;;;;;;;7.85;5.53;;;;;;;15.35;70.36;102604.19;4991894;28;20570;-66
2023/09/04 01:57:19;;;;;;;6.90;5.90;;;;;;;15.34;71.31;102606.88;4992032;28;20166;-66
2023/09/04 01:59:44;;;;;;;10.27;7.18;;;;;;;15.37;71.64;102604.97;4989645;28;20030;-66
2023/09/04 02:02:09;;;;;;;8.10;7.28;;;;;;;15.36;71.84;102615.69;4991729;28;20148;-66
2023/09/04 02:04:35;;;;;;;8.30;7.30;;;;;;;15.42;72.25;102615.50;4991717;28;20092;-66
2023/09/04 02:07:00;;;;;;;9.23;6.20;;;;;;;15.46;72.03;102615.34;4987129;28;20494;-66
2023/09/04 02:09:25;;;;;;;6.78;6.07;;;;;;;15.49;71.90;102609.94;4989861;28;20027;-66
2023/09/04 02:11:51;;;;;;;8.73;6.57;;;;;;;15.40;71.80;102606.69;4992416;28;20031;-66
2023/09/04 02:14:16;;;;;;;6.97;5.97;;;;;;;15.37;70.29;102604.13;4989193;28;20114;-66
2023/09/04 02:16:42;;;;;;;6.10;5.13;;;;;;;15.24;71.15;102607.16;4987076;28;20021;-66
2023/09/04 02:19:07;;;;;;;4.43;4.03;;;;;;;15.15;71.55;102611.91;4989472;28;20030;-66
2023/09/04 02:21:32;;;;;;;6.75;5.80;;;;;;;15.02;71.64;102603.44;4988155;28;20026;-66
2023/09/04 02:23:58;;;;;;;5.47;4.43;;;;;;;14.97;70.85;102605.38;4990391;28;20538;-66
2023/09/04 02:26:23;;;;;;;4.50;3.92;;;;;;;14.96;71.87;102595.63;4986522;28;20037;-65
2023/09/04 02:28:48;;;;;;;4.70;4.30;;;;;;;14.97;71.88;102589.38;4986685;28;20503;-66
2023/09/04 02:31:14;;;;;;;5.60;4.45;;;;;;;14.95;71.32;102577.91;4988214;28;20065;-66
2023/09/04 02:33:39;;;;;;;4.50;4.10;;;;;;;14.97;72.06;102592.06;4988771;28;20038;-66
2023/09/04 02:36:04;;;;;;;4.28;3.88;;;;;;;14.88;71.90;102587.88;4987245;28;20026;-66
2023/09/04 02:38:30;;;;;;;4.70;4.05;;;;;;;14.79;71.71;102591.69;4991370;28;20066;-66
2023/09/04 02:40:55;;;;;;;4.85;3.50;;;;;;;14.75;71.46;102583.84;4987171;28;20650;-66
2023/09/04 02:43:20;;;;;;;4.55;3.67;;;;;;;14.63;72.04;102590.38;4992082;28;20037;-66
2023/09/04 02:45:47;;;;;;;3.95;3.40;;;;;;;14.57;73.20;102590.56;4989857;28;20030;-66
2023/09/04 02:48:12;;;;;;;4.45;3.67;;;;;;;14.53;73.29;102596.88;4991686;28;20115;-66
2023/09/04 02:50:39;;;;;;;5.57;4.43;;;;;;;14.51;73.29;102590.75;4987767;28;20046;-66
2023/09/04 02:53:05;;;;;;;6.38;5.05;;;;;;;14.59;73.31;102583.38;4991479;28;20058;-66
2023/09/04 02:55:31;;;;;;;7.28;5.35;;;;;;;14.65;73.16;102588.56;4989846;28;20700;-66
2023/09/04 02:57:56;;;;;;;6.50;5.28;;;;;;;14.69;72.57;102578.69;4985781;28;20493;-66
2023/09/04 03:00:21;;;;;;;6.90;6.20;;;;;;;14.72;71.94;102579.44;4987108;28;20022;-67
2023/09/04 03:02:47;;;;;;;7.15;5.60;;;;;;;14.72;72.49;102576.78;4996627;28;20058;-66
2023/09/04 03:05:12;;;;;;;9.30;6.05;;;;;;;14.74;72.35;102580.31;4994037;28;20093;-66
2023/09/04 03:07:38;;;;;;;6.57;5.88;;;;;;;14.72;72.86;102581.25;4987332;28;20080;-66
2023/09/04 03:10:03;;;;;;;6.95;6.25;;;;;;;14.76;72.50;102582.91;4992106;28;20419;-66
2023/09/04 03:12:32;;;;;;;8.80;5.97;;;;;;;14.70;72.87;102583.09;4994013;28;20030;-66
2023/09/04 03:15:00;;;;;;;7.63;5.68;;;;;;;14.66;72.33;102578.78;4986772;28;20026;-66
2023/09/04 03:17:27;;;;;;;6.20;5.50;;;;;;;14.65;72.15;102580.56;4986440;28;20022;-66
2023/09/04 03:19:54;;;;;;;6.15;5.45;;;;;;;14.64;72.96;102580.59;4990014;28;20045;-66
2023/09/04 03:22:20;;;;;;;6.40;5.60;;;;;;;14.50;73.26;102563.25;4991334;28;20108;-66
2023/09/04 03:24:46;;;;;;;7.65;6.40;;;;;;;14.35;73.87;102562.78;4987152;28;20027;-66
2023/09/04 03:27:11;;;;;;;6.85;5.90;;;;;;;14.28;74.29;102562.97;4991506;28;20536;-66
2023/09/04 03:29:36;;;;;;;8.68;7.65;;;;;;;14.28;75.04;102552.31;4989957;28;20026;-66
2023/09/04 03:32:02;;;;;;;10.43;8.40;;;;;;;14.30;75.34;102552.25;4990887;28;20029;-67
2023/09/04 03:34:29;;;;;;;9.80;7.47;;;;;;;14.27;75.72;102557.69;4993677;28;20025;-66
2023/09/04 03:36:54;;;;;;;12.93;9.00;;;;;;;14.20;76.38;102558.75;4987842;28;20545;-66
2023/09/04 03:39:19;;;;;;;11.95;8.32;;;;;;;14.24;75.95;102555.97;4988857;28;20269;-66
2023/09/04 03:41:44;;;;;;;11.57;8.45;;;;;;;14.32;75.41;102554.91;4988908;28;20402;-65
2023/09/04 03:44:10;;;;;;;12.52;9.43;;;;;;;14.33;74.97;102553.97;4986588;28;20030;-66
2023/09/04 03:46:35;;;;;;;10.45;9.13;;;;;;;14.36;75.93;102553.88;4992191;28;20030;-66
2023/09/04 03:49:00;;;;;;;13.13;9.80;;;;;;;14.37;75.62;102558.31;4993921;28;20038;-66
2023/09/04 03:51:25;;;;;;;12.50;9.82;;;;;;;14.35;75.51;102552.13;4991047;28;20509;-66
2023/09/04 03:53:51;;;;;;;11.48;9.93;;;;;;;14.37;75.65;102547.66;4987143;28;20069;-66
2023/09/04 03:56:16;;;;;;;11.20;9.35;;;;;;;14.33;74.15;102546.88;4989051;28;20030;-66
2023/09/04 03:58:42;;;;;;;12.32;9.50;;;;;;;14.29;74.38;102548.72;4986783;28;20065;-66
2023/09/04 04:01:07;;;;;;;11.65;9.63;;;;;;;14.26;75.10;102548.81;4989371;28;20521;-67
2023/09/04 04:03:32;;;;;;;13.55;9.55;;;;;;;14.28;74.41;102549.66;4990197;28;20113;-66
2023/09/04 04:05:58;;;;;;;14.82;10.60;;;;;;;14.20;75.61;102541.00;4991857;28;20034;-66
2023/09/04 04:08:23;;;;;;;12.00;9.55;;;;;;;14.18;75.50;102542.84;4989836;28;20560;-66
2023/09/04 04:10:48;;;;;;;13.45;10.32;;;;;;;14.20;75.62;102540.16;4965294;28;20034;-66
2023/09/04 04:13:13;;;;;;;13.30;10.40;;;;;;;14.17;76.56;102542.88;4990319;28;20397;-66
2023/09/04 04:15:39;;;;;;;13.32;9.95;;;;;;;14.13;75.76;102539.47;4982981;28;20037;-66
2023/09/04 04:18:07;;;;;;;14.65;10.93;;;;;;;14.13;76.98;102539.47;4982256;28;20022;-66
2023/09/04 04:20:33;;;;;;;13.70;11.15;;;;;;;14.10;77.75;102534.22;4982199;28;20049;-66
2023/09/04 04:22:59;;;;;;;15.20;11.15;;;;;;;14.03;79.04;102543.25;4986368;28;20113;-66
2023/09/04 04:25:24;;;;;;;12.88;10.07;;;;;;;13.99;77.34;102542.50;4985451;28;20109;-66
2023/09/04 04:27:49;;;;;;;18.02;11.45;;;;;;;13.99;77.40;102541.63;4991566;28;20385;-66
2023/09/04 04:30:14;;;;;;;11.80;10.23;;;;;;;13.97;76.44;102541.66;4986197;28;20022;-66
2023/09/04 04:32:40;;;;;;;14.00;10.20;;;;;;;13.83;76.12;102534.97;4997013;28;20033;-66
2023/09/04 04:35:06;;;;;;;14.70;10.45;;;;;;;13.83;76.29;102538.47;4986598;28;20057;-66
2023/09/04 04:37:31;;;;;;;11.90;9.90;;;;;;;13.85;76.94;102541.09;4991708;28;20038;-66
2023/09/04 04:39:57;;;;;;;13.70;11.25;;;;;;;13.83;77.33;102542.94;4994447;28;20053;-67
2023/09/04 04:42:24;;;;;;;12.80;10.65;;;;;;;13.84;77.05;102544.66;4993100;28;20101;-66
2023/09/04 04:44:49;;;;;;;13.73;10.82;;;;;;;13.87;77.00;102542.81;4994692;28;20030;-66
2023/09/04 04:47:14;;;;;;;14.25;11.60;;;;;;;13.82;76.88;102544.72;5002452;28;20466;-66
2023/09/04 04:49:39;;;;;;;13.73;11.60;;;;;;;13.76;77.82;102544.91;4991410;28;20038;-66
2023/09/04 04:52:05;;;;;;;15.38;11.30;;;;;;;13.78;78.18;102543.06;4989545;28;20030;-66
2023/09/04 04:54:30;;;;;;;14.80;11.15;;;;;;;13.84;77.69;102534.03;4993060;28;20026;-66
2023/09/04 04:56:55;;;;;;;15.13;10.95;;;;;;;13.89;77.40;102542.75;4987450;28;20077;-66
2023/09/04 04:59:21;;;;;;;14.77;10.85;;;;;;;13.87;76.89;102532.19;4994338;28;20026;-65
2023/09/04 05:01:46;;;;;;;14.98;10.48;;;;;;;13.89;77.08;102529.47;4995840;28;20018;-65
2023/09/04 05:04:11;;;;;;;13.10;10.50;;;;;;;13.96;78.07;102528.41;4996224;28;20477;-65
2023/09/04 05:06:37;;;;;;;14.40;11.13;;;;;;;14.07;77.41;102528.97;4995343;28;20466;-65
2023/09/04 05:09:03;;;;;;;13.00;11.23;;;;;;;13.98;77.06;102530.09;4994487;28;20036;-65
2023/09/04 05:11:28;;;;;;;16.38;11.68;;;;;;;14.07;78.01;102531.63;4992317;28;20030;-66
2023/09/04 05:13:54;;;;;;;13.23;11.18;;;;;;;14.14;77.11;102527.91;4993304;28;20034;-65
2023/09/04 05:16:19;;;;;;;15.75;11.45;;;;;;;14.16;77.48;102534.03;4996626;28;20030;-67
2023/09/04 05:18:44;;;;;;;15.73;11.98;;;;;;;14.19;78.04;102530.44;4989311;28;20408;-65
2023/09/04 05:21:10;;;;;;;14.75;11.40;;;;;;;14.24;77.63;102539.16;4990342;28;20065;-65
2023/09/04 05:23:35;;;;;;;14.98;11.43;;;;;;;14.28;78.28;102532.81;4989806;28;20034;-66
2023/09/04 05:26:00;;;;;;;14.90;11.98;;;;;;;14.35;78.14;102533.50;4973131;28;20453;-66
2023/09/04 05:28:26;;;;;;;15.30;11.98;;;;;;;14.27;78.54;102529.28;4989987;28;20433;-65
2023/09/04 05:30:51;;;;;;;13.80;11.57;;;;;;;14.34;77.99;102531.78;4987792;28;20642;-65
2023/09/04 05:33:16;;;;;;;14.07;11.90;;;;;;;14.38;77.62;102536.09;4993347;28;20469;-65
2023/09/04 05:35:42;;;;;;;13.35;11.13;;;;;;;14.47;77.80;102535.81;4994177;28;20031;-66
2023/09/04 05:38:07;;;;;;;15.85;11.55;;;;;;;14.56;77.74;102529.41;4996713;28;20041;-65
2023/09/04 05:40:32;;;;;;;14.02;11.85;;;;;;;14.60;77.31;102537.25;4994433;28;20026;-65
2023/09/04 05:42:58;;;;;;;15.73;12.02;;;;;;;14.65;77.45;102537.09;4994318;28;20497;-65
2023/09/04 05:45:24;;;;;;;17.40;11.93;;;;;;;14.69;78.09;102536.09;4988473;28;20030;-65
2023/09/04 05:47:49;;;;;;;14.27;11.80;;;;;;;14.83;77.67;102533.00;4994286;28;20096;-65
2023/09/04 05:50:14;;;;;;;16.17;12.73;;;;;;;14.94;76.88;102545.06;4991286;28;20261;-65
2023/09/04 05:52:40;;;;;;;15.77;12.15;;;;;;;15.02;77.07;102540.38;4993449;28;20041;-65
2023/09/04 05:55:06;;;;;;;15.93;11.35;;;;;;;15.14;76.15;102539.09;4990952;28;20114;-65
2023/09/04 05:57:32;;;;;;;14.02;11.73;;;;;;;15.21;75.88;102551.31;4988015;28;20026;-66
2023/09/04 05:59:57;;;;;;;13.27;11.13;;;;;;;15.27;75.95;102548.44;4986932;28;20092;-65
2023/09/04 06:02:22;;;;;;;16.58;12.07;;;;;;;15.33;76.19;102539.38;4990085;28;20030;-65
2023/09/04 06:04:47;;;;;;;12.82;11.38;;;;;;;15.40;76.10;102545.38;4994838;28;20061;-65
2023/09/04 06:07:14;;;;;;;15.30;12.23;;;;;;;15.49;76.18;102548.63;4994050;28;20026;-66
2023/09/04 06:09:40;;;;;;;15.50;12.00;;;;;;;15.32;77.87;102553.63;4989541;28;20019;-65
2023/09/04 06:12:06;;;;;;;14.00;11.50;;;;;;;15.27;77.46;102550.25;4988509;28;20034;-65
2023/09/04 06:14:31;;;;;;;15.48;11.70;;;;;;;15.34;77.33;102548.22;4992326;28;20030;-65
2023/09/04 06:16:58;;;;;;;15.20;11.98;;;;;;;15.39;78.02;102548.94;4992564;28;20036;-65
2023/09/04 06:19:23;;;;;;;11.40;9.95;;;;;;;15.46;76.86;102553.16;4990137;28;20371;-65
2023/09/04 06:21:48;;;;;;;12.20;11.00;;;;;;;15.51;77.86;102549.44;4987856;28;20458;-66
2023/09/04 06:24:14;;;;;;;16.75;11.68;;;;;;;15.55;78.44;102542.19;4989530;28;20084;-66
2023/09/04 06:26:39;;;;;;;14.98;12.57;;;;;;;15.58;78.70;102542.09;4990447;28;20456;-66
2023/09/04 06:29:04;;;;;;;14.52;11.13;;;;;;;15.69;78.02;102549.78;4987802;28;20042;-67
2023/09/04 06:31:30;;;;;;;14.98;12.40;;;;;;;15.76;78.88;102544.19;4985043;28;20034;-67
2023/09/04 06:33:56;;;;;;;15.23;11.93;;;;;;;15.84;78.27;102537.69;4991489;28;20027;-67
2023/09/04 06:36:22;;;;;;;16.38;11.90;;;;;;;15.95;78.92;102541.75;4994235;28;20041;-67
2023/09/04 06:38:47;;;;;;;17.33;12.40;;;;;;;16.04;78.69;102546.75;4988478;28;20031;-67
2023/09/04 06:41:12;;;;;;;15.50;12.40;;;;;;;16.13;78.50;102550.00;4992083;28;20058;-67
2023/09/04 06:43:37;;;;;;;14.00;11.70;;;;;;;16.24;78.56;102547.81;4988475;28;20573;-67
2023/09/04 06:46:03;;;;;;;16.95;12.52;;;;;;;16.31;78.59;102531.50;4993611;28;20034;-67
2023/09/04 06:48:28;;;;;;;17.23;11.70;;;;;;;16.39;78.28;102547.25;4997390;28;20740;-67
2023/09/04 06:50:54;;;;;;;17.42;13.75;;;;;;;16.45;78.08;102535.47;4987933;28;20398;-67
2023/09/04 06:53:19;;;;;;;14.43;11.57;;;;;;;16.54;77.33;102535.97;4991585;28;20466;-67
2023/09/04 06:55:47;;;;;;;17.73;13.52;;;;;;;16.62;78.08;102538.38;4999970;28;20026;-67
2023/09/04 06:58:12;;;;;;;17.23;13.85;;;;;;;16.70;78.87;102536.28;4992223;28;20038;-67
2023/09/04 07:00:37;;;;;;;16.30;13.10;;;;;;;16.75;78.96;102537.00;4986550;28;20033;-67
2023/09/04 07:03:04;;;;;;;16.30;13.15;;;;;;;16.83;78.96;102529.56;4992169;28;20485;-67
2023/09/04 07:05:29;;;;;;;18.17;13.68;;;;;;;16.99;78.81;102532.50;4994101;28;20073;-67
2023/09/04 07:07:55;;;;;;;14.95;13.05;;;;;;;17.16;78.78;102537.16;4996053;28;20105;-67
2023/09/04 07:10:20;;;;;;;16.42;13.00;;;;;;;17.30;77.61;102537.47;4990127;28;20037;-67
2023/09/04 07:12:45;;;;;;;19.27;13.40;;;;;;;17.41;78.53;102526.31;4989203;28;20049;-67
2023/09/04 07:15:12;;;;;;;15.35;13.45;;;;;;;17.53;77.41;102533.84;4989108;28;20025;-67
2023/09/04 07:17:38;;;;;;;16.50;12.82;;;;;;;17.65;77.36;102526.22;4994740;28;20505;-67
2023/09/04 07:20:04;;;;;;;16.42;13.23;;;;;;;17.78;77.78;102528.31;4987178;28;20173;-70
2023/09/04 07:22:30;;;;;;;18.15;14.05;;;;;;;17.94;75.64;102528.50;4984756;28;20025;-68
2023/09/04 07:24:55;;;;;;;14.35;12.45;;;;;;;18.09;75.37;102525.16;4987201;28;20517;-68
2023/09/04 07:27:20;;;;;;;19.05;13.88;;;;;;;18.20;76.23;102529.16;4988111;28;20481;-68
2023/09/04 07:29:46;;;;;;;15.75;12.50;;;;;;;18.34;75.48;102524.91;4988581;28;20100;-68
2023/09/04 07:32:11;;;;;;;16.80;13.15;;;;;;;18.48;75.55;102523.41;4990392;28;20030;-68
2023/09/04 07:34:36;;;;;;;13.95;12.30;;;;;;;18.63;74.37;102528.03;4994238;28;20041;-68
2023/09/04 07:37:02;;;;;;;17.33;13.68;;;;;;;18.74;74.34;102516.84;4994097;28;20485;-68
2023/09/04 07:39:28;;;;;;;16.77;12.75;;;;;;;18.89;74.72;102528.66;4990768;28;20052;-66
2023/09/04 07:41:57;;;;;;;17.58;12.75;;;;;;;19.04;72.67;102527.91;4993639;28;20025;-67
2023/09/04 07:44:22;;;;;;;14.38;12.13;;;;;;;19.29;71.03;102532.91;4985033;28;20030;-67
2023/09/04 07:46:49;;;;;;;13.57;11.50;;;;;;;19.47;68.71;102533.81;4992713;28;20481;-67
2023/09/04 07:49:14;;;;;;;14.45;11.95;;;;;;;19.87;68.77;102538.03;4988120;28;20474;-67
2023/09/04 07:51:40;;;;;;;14.07;12.57;;;;;;;20.12;69.19;102535.78;4991793;28;20119;-67
2023/09/04 07:54:05;;;;;;;15.10;12.13;;;;;;;20.29;67.80;102526.84;4988634;28;21864;-67
2023/09/04 07:56:31;;;;;;;13.23;10.38;;;;;;;20.68;66.03;102522.06;4992751;28;20504;-69
2023/09/04 07:58:56;;;;;;;12.48;10.85;;;;;;;20.93;66.43;102521.53;4993450;28;20030;-68
2023/09/04 08:01:21;;;;;;;13.45;10.70;;;;;;;21.32;65.80;102531.84;4990296;28;20029;-69
2023/09/04 08:03:46;;;;;;;15.07;9.50;;;;;;;21.69;64.26;102524.28;4990248;28;20389;-71
2023/09/04 08:06:12;;;;;;;12.50;10.48;;;;;;;21.86;62.66;102514.19;4993453;28;20030;-69
2023/09/04 08:08:37;;;;;;;11.50;9.00;;;;;;;22.12;62.35;102523.41;4991284;28;20049;-70
2023/09/04 08:11:02;;;;;;;11.38;10.15;;;;;;;22.39;60.99;102518.13;4997972;28;20041;-69
2023/09/04 08:13:28;;;;;;;10.57;9.02;;;;;;;22.72;60.43;102518.75;4997599;28;20015;-69
2023/09/04 08:15:53;;;;;;;11.30;9.55;;;;;;;23.00;59.82;102513.31;4989398;28;20034;-70
2023/09/04 08:18:18;;;;;;;14.20;10.77;;;;;;;23.16;59.80;102511.31;4988316;28;20030;-70
2023/09/04 08:20:44;;;;;;;11.52;9.85;;;;;;;23.46;58.79;102517.47;4986983;28;20085;-70
2023/09/04 08:23:12;;;;;;;13.80;9.90;;;;;;;23.74;59.54;102511.06;4986327;28;20470;-70
2023/09/04 08:25:38;;;;;;;10.90;9.80;;;;;;;24.07;56.38;102518.66;4988741;28;20121;-70
2023/09/04 08:28:04;;;;;;;11.70;8.32;;;;;;;24.15;54.88;102518.94;4991237;28;20062;-70
2023/09/04 08:30:30;;;;;;;8.68;7.57;;;;;;;24.35;54.98;102501.31;4974570;28;20019;-69
2023/09/04 08:32:55;;;;;;;10.25;7.55;;;;;;;24.75;54.03;102504.69;4993072;28;20099;-68
2023/09/04 08:35:21;;;;;;;12.20;7.75;;;;;;;24.80;52.92;102507.91;4989752;28;20042;-69
2023/09/04 08:37:46;;;;;;;8.95;6.30;;;;;;;24.99;51.78;102506.56;4987239;28;20494;-68
2023/09/04 08:40:12;;;;;;;7.43;6.53;;;;;;;25.10;51.98;102510.22;4989311;28;20489;-71
2023/09/04 08:42:38;;;;;;;6.78;5.90;;;;;;;25.34;48.93;102504.78;4988375;28;20474;-68
2023/09/04 08:45:06;;;;;;;5.78;4.95;;;;;;;25.42;50.72;102507.78;4982904;28;20774;-68
2023/09/04 08:47:37;;;;;;;5.70;5.10;;;;;;;25.93;48.92;102512.00;4985393;28;20081;-69
2023/09/04 08:50:03;;;;;;;5.13;4.63;;;;;;;26.28;47.22;102503.75;4987687;28;20093;-68
2023/09/04 08:52:28;;;;;;;5.05;4.50;;;;;;;26.43;46.58;102507.97;4990238;28;20037;-68
2023/09/04 08:54:54;;;;;;;5.47;4.55;;;;;;;26.67;45.70;102502.41;4989883;28;20033;-68
2023/09/04 08:57:20;;;;;;;6.43;4.63;;;;;;;26.83;45.74;102512.00;4990108;28;20030;-68
2023/09/04 08:59:45;;;;;;;4.55;4.15;;;;;;;27.13;45.63;102506.72;4986849;28;20029;-69
2023/09/04 09:02:15;;;;;;;4.63;4.20;;;;;;;27.17;47.17;102507.34;4984015;28;20141;-69
2023/09/04 09:04:41;;;;;;;5.18;3.90;;;;;;;27.45;44.58;102495.84;4984209;28;20429;-69
2023/09/04 09:07:08;;;;;;;5.53;3.78;;;;;;;27.62;43.71;102504.41;4986604;28;20034;-69
2023/09/04 09:09:38;;;;;;;6.82;4.18;;;;;;;27.81;43.32;102493.69;4984210;28;20077;-68
2023/09/04 09:12:03;;;;;;;4.65;4.25;;;;;;;28.59;43.73;102488.63;4987966;28;20477;-69
2023/09/04 09:14:29;;;;;;;3.90;3.47;;;;;;;28.90;41.25;102487.50;4989452;28;20028;-68
2023/09/04 09:17:08;;;;;;;3.97;3.40;;;;;;;29.46;40.08;102492.28;4988572;28;20014;-69
2023/09/04 09:19:35;;;;;;;6.75;4.30;;;;;;;29.20;42.07;102493.88;4989523;28;20049;-69
2023/09/04 09:22:18;;;;;;;5.07;4.53;;;;;;;29.49;42.13;102494.72;4989561;28;20546;-70
2023/09/04 09:24:54;;;;;;;5.82;4.50;;;;;;;29.84;41.72;102498.69;4985490;28;20030;-71
2023/09/04 09:27:22;;;;;;;6.65;5.68;;;;;;;30.13;39.59;102492.28;4986314;28;20040;-69
2023/09/04 09:29:48;;;;;;;5.43;4.28;;;;;;;30.54;39.05;102493.69;4990220;28;20541;-68
2023/09/04 09:32:18;;;;;;;3.90;3.40;;;;;;;30.82;38.78;102496.41;4990366;28;20060;-68
2023/09/04 09:34:51;;;;;;;6.28;3.65;;;;;;;30.92;38.69;102495.34;4992064;28;20065;-68
2023/09/04 09:37:21;;;;;;;3.70;3.40;;;;;;;30.92;37.67;102492.63;4999340;28;20026;-68
2023/09/04 09:39:46;;;;;;;6.70;4.65;;;;;;;31.33;36.39;102498.47;4991753;28;20030;-70
2023/09/04 09:42:12;;;;;;;4.00;3.60;;;;;;;31.53;37.21;102487.38;4994474;28;20034;-70
2023/09/04 09:44:38;;;;;;;4.63;3.97;;;;;;;31.79;36.74;102488.22;4991507;28;20386;-70
2023/09/04 09:47:07;;;;;;;4.88;4.38;;;;;;;31.88;36.44;102486.44;4994424;28;20042;-70
2023/09/04 09:49:34;;;;;;;5.15;4.20;;;;;;;31.86;35.76;102485.75;4999031;28;20033;-70
2023/09/04 09:51:59;;;;;;;6.30;4.05;;;;;;;32.56;35.21;102491.91;4990290;28;20047;-71
2023/09/04 09:54:40;;;;;;;6.33;3.90;;;;;;;33.37;34.66;102490.34;4994040;28;20101;-71
2023/09/04 09:57:10;;;;;;;5.63;3.95;;;;;;;33.29;32.84;102487.59;4991028;28;20296;-71
2023/09/04 09:59:43;;;;;;;5.05;3.65;;;;;;;33.76;33.50;102485.88;4988464;28;20030;-71
2023/09/04 10:02:08;;;;;;;6.05;3.63;;;;;;;33.98;32.66;102481.53;4988781;28;20026;-71
2023/09/04 10:04:35;;;;;;;4.25;3.85;;;;;;;34.16;30.67;102478.56;4990977;28;20030;-71
2023/09/04 10:07:04;;;;;;;5.40;3.53;;;;;;;34.19;32.28;102477.38;4993479;28;20038;-71
2023/09/04 10:09:43;;;;;;;6.07;3.97;;;;;;;34.09;33.12;102476.69;4990110;28;20482;-70
2023/09/04 10:12:16;;;;;;;4.78;3.40;;;;;;;33.84;32.75;102471.25;4993295;28;20026;-70
2023/09/04 10:14:42;;;;;;;4.90;4.20;;;;;;;33.93;31.32;102464.72;4986634;28;20041;-70
2023/09/04 10:17:14;;;;;;;6.10;3.40;;;;;;;33.79;32.19;102467.34;4990409;28;20034;-70
2023/09/04 10:19:42;;;;;;;3.83;3.50;;;;;;;33.52;32.04;102477.66;4972802;28;20058;-70
2023/09/04 10:22:15;;;;;;;3.42;3.13;;;;;;;33.47;32.70;102471.84;4985149;28;20025;-70
2023/09/04 10:25:07;;;;;;;5.90;3.60;;;;;;;33.32;33.63;102470.81;4986189;28;20026;-70
2023/09/04 10:27:40;;;;;;;4.20;3.13;;;;;;;33.00;33.90;102465.13;4990505;28;20434;-70
2023/09/04 10:30:06;;;;;;;3.70;3.40;;;;;;;32.83;32.30;102462.50;4987923;28;20553;-70
2023/09/04 10:32:33;;;;;;;3.58;3.28;;;;;;;32.77;32.41;102461.31;4986750;28;20037;-70
2023/09/04 10:35:01;;;;;;;4.43;3.50;;;;;;;32.73;33.15;102451.72;4970618;28;20121;-70
2023/09/04 10:37:29;;;;;;;3.33;3.00;;;;;;;32.78;33.99;102452.06;4989893;28;20034;-70
2023/09/04 10:39:55;;;;;;;3.70;3.20;;;;;;;32.73;33.27;102448.97;4986815;28;20026;-70
2023/09/04 10:42:23;;;;;;;2.80;2.50;;;;;;;32.91;31.52;102452.47;4985867;28;20454;-70
2023/09/04 10:44:51;;;;;;;2.95;2.72;;;;;;;32.44;31.83;102447.53;4988062;28;20034;-70
2023/09/04 10:47:18;;;;;;;2.90;2.53;;;;;;;32.03;34.14;102451.13;4986528;28;20026;-70
2023/09/04 10:49:44;;;;;;;5.55;2.70;;;;;;;32.22;32.48;102439.91;4991836;28;20030;-70
2023/09/04 10:52:11;;;;;;;3.00;2.28;;;;;;;32.12;33.01;102437.31;4993267;28;20470;-70
2023/09/04 10:54:36;;;;;;;2.25;2.15;;;;;;;32.11;30.75;102440.22;4991254;28;20022;-70
2023/09/04 10:57:07;;;;;;;3.60;2.88;;;;;;;31.57;33.55;102434.06;4987275;28;20482;-70
2023/09/04 10:59:55;;;;;;;2.83;2.55;;;;;;;31.31;34.72;102439.53;4988574;28;20041;-69
2023/09/04 11:02:30;;;;;;;2.88;2.53;;;;;;;31.77;33.72;102423.78;4985560;28;20044;-69
2023/09/04 11:04:56;;;;;;;4.00;2.70;;;;;;;31.96;34.46;102429.88;4997214;28;20030;-69
2023/09/04 11:07:21;;;;;;;2.97;2.50;;;;;;;32.10;34.71;102422.09;4985535;28;20026;-69
2023/09/04 11:09:47;;;;;;;3.67;2.73;;;;;;;31.60;33.57;102418.19;4989219;28;20456;-70
2023/09/04 11:12:22;;;;;;;3.83;2.67;;;;;;;32.15;34.91;102419.72;4989996;28;20030;-71
2023/09/04 11:14:51;;;;;;;2.55;2.35;;;;;;;32.41;33.63;102409.56;4987197;28;20112;-70
2023/09/04 11:17:17;;;;;;;3.03;2.83;;;;;;;32.03;33.60;102407.34;4988632;28;20018;-70